createdAt,value
2023-01-21T00:02:08.181Z,2.20
2023-01-21T00:04:38.171Z,2.53
2023-01-21T00:07:07.183Z,2.40
2023-01-21T00:09:35.453Z,1.93
2023-01-21T00:12:03.791Z,2.60
2023-01-21T00:14:32.906Z,1.60
2023-01-21T00:17:02.601Z,1.70
2023-01-21T00:19:30.728Z,2.30
2023-01-21T00:21:58.902Z,2.50
2023-01-21T00:24:27.108Z,1.90
2023-01-21T00:26:55.286Z,2.10
2023-01-21T00:29:23.403Z,2.10
2023-01-21T00:31:51.576Z,1.87
2023-01-21T00:34:22.032Z,3.07
2023-01-21T00:36:50.231Z,2.30
2023-01-21T00:39:18.399Z,2.27
2023-01-21T00:41:46.489Z,2.70
2023-01-21T00:44:14.645Z,1.83
2023-01-21T00:46:42.788Z,3.27
2023-01-21T00:49:10.914Z,2.60
2023-01-21T00:51:40.444Z,2.23
2023-01-21T00:54:08.559Z,2.50
2023-01-21T00:56:36.663Z,2.20
2023-01-21T00:59:05.005Z,2.27
2023-01-21T01:01:37.262Z,2.27
2023-01-21T01:04:06.686Z,2.50
2023-01-21T01:06:35.704Z,2.67
2023-01-21T01:09:05.288Z,2.30
2023-01-21T01:11:33.479Z,2.60
2023-01-21T01:14:01.572Z,2.00
2023-01-21T01:16:29.758Z,2.13
2023-01-21T01:18:57.949Z,1.90
2023-01-21T01:21:26.189Z,2.10
2023-01-21T01:23:54.866Z,2.60
2023-01-21T01:26:24.578Z,2.57
2023-01-21T01:28:53.609Z,2.47
2023-01-21T01:31:22.799Z,2.43
2023-01-21T01:33:51.033Z,2.10
2023-01-21T01:36:21.315Z,2.77
2023-01-21T01:38:49.424Z,1.80
2023-01-21T01:41:19.156Z,2.50
2023-01-21T01:43:54.931Z,2.27
2023-01-21T01:46:24.533Z,2.10
2023-01-21T01:48:59.628Z,2.50
2023-01-21T01:51:34.152Z,2.17
2023-01-21T01:54:03.202Z,2.03
2023-01-21T01:56:32.129Z,2.20
2023-01-21T01:59:01.787Z,2.57
2023-01-21T02:01:29.936Z,2.20
2023-01-21T02:04:00.943Z,2.00
2023-01-21T02:06:29.102Z,3.33
2023-01-21T02:08:58.038Z,2.03
2023-01-21T02:11:26.197Z,2.40
2023-01-21T02:13:57.219Z,2.40
2023-01-21T02:16:57.931Z,2.37
2023-01-21T02:20:03.300Z,2.40
2023-01-21T02:22:38.308Z,3.13
2023-01-21T02:25:51.790Z,2.00
2023-01-21T02:28:49.134Z,2.40
2023-01-21T02:31:48.351Z,3.23
2023-01-21T02:34:23.996Z,2.40
2023-01-21T02:37:03.830Z,1.97
2023-01-21T02:39:45.203Z,2.30
2023-01-21T02:42:23.566Z,2.67
2023-01-21T02:44:58.665Z,2.57
2023-01-21T02:47:30.447Z,2.80
2023-01-21T02:50:04.440Z,2.00
2023-01-21T02:52:32.570Z,2.07
2023-01-21T02:55:01.907Z,2.60
2023-01-21T02:57:47.031Z,2.33
2023-01-21T03:00:20.747Z,2.73
2023-01-21T03:03:27.751Z,4.97
2023-01-21T03:06:26.891Z,2.40
2023-01-21T03:08:58.030Z,2.40
2023-01-21T03:11:27.091Z,2.90
2023-01-21T03:14:18.717Z,2.60
2023-01-21T03:16:57.997Z,2.57
2023-01-21T03:19:33.717Z,2.40
2023-01-21T03:22:07.272Z,2.33
2023-01-21T03:24:35.873Z,2.57
2023-01-21T03:27:10.069Z,2.43
2023-01-21T03:29:42.422Z,2.27
2023-01-21T03:32:14.759Z,2.37
2023-01-21T03:34:46.720Z,2.40
2023-01-21T03:37:22.524Z,2.97
2023-01-21T03:39:59.452Z,2.60
2023-01-21T03:42:28.049Z,2.23
2023-01-21T03:44:56.733Z,2.77
2023-01-21T03:47:29.606Z,2.40
2023-01-21T03:50:01.641Z,2.63
2023-01-21T03:52:31.873Z,2.73
2023-01-21T03:55:00.408Z,2.87
2023-01-21T03:57:28.594Z,2.93
2023-01-21T03:59:56.744Z,2.37
2023-01-21T04:02:26.314Z,2.50
2023-01-21T04:04:54.487Z,2.57
2023-01-21T04:07:22.658Z,2.47
2023-01-21T04:09:52.219Z,2.70
2023-01-21T04:12:20.425Z,2.50
2023-01-21T04:14:48.538Z,2.80
2023-01-21T04:17:16.672Z,2.77
2023-01-21T04:19:44.841Z,4.57
2023-01-21T04:22:13.034Z,5.20
2023-01-21T04:24:41.166Z,4.73
2023-01-21T04:27:10.619Z,5.33
2023-01-21T04:29:38.700Z,4.67
2023-01-21T04:32:07.068Z,4.77
2023-01-21T04:34:35.207Z,3.30
2023-01-21T04:37:03.441Z,6.00
2023-01-21T04:39:31.505Z,4.13
2023-01-21T04:41:59.604Z,4.60
2023-01-21T04:44:29.468Z,3.87
2023-01-21T04:46:57.567Z,4.50
2023-01-21T04:49:25.776Z,3.73
2023-01-21T04:51:53.935Z,4.07
2023-01-21T04:54:22.055Z,4.97
2023-01-21T04:56:50.142Z,8.23
2023-01-21T04:59:18.353Z,3.17
2023-01-21T05:01:47.864Z,4.67
2023-01-21T05:04:16.119Z,4.60
2023-01-21T05:06:44.170Z,3.57
2023-01-21T05:09:12.366Z,5.57
2023-01-21T05:11:40.493Z,3.23
2023-01-21T05:14:08.725Z,4.33
2023-01-21T05:16:36.840Z,3.30
2023-01-21T05:19:06.389Z,9.57
2023-01-21T05:21:34.510Z,3.07
2023-01-21T05:24:02.671Z,4.23
2023-01-21T05:26:30.825Z,5.50
2023-01-21T05:28:58.949Z,4.17
2023-01-21T05:31:27.188Z,4.13
2023-01-21T05:33:55.366Z,3.30
2023-01-21T05:36:24.931Z,2.90
2023-01-21T05:38:53.087Z,3.07
2023-01-21T05:41:22.242Z,4.00
2023-01-21T05:43:50.406Z,3.47
2023-01-21T05:46:18.822Z,3.10
2023-01-21T05:48:47.002Z,3.00
2023-01-21T05:51:15.429Z,3.60
2023-01-21T05:53:44.931Z,3.30
2023-01-21T05:56:13.250Z,4.43
2023-01-21T05:58:41.351Z,3.90
2023-01-21T06:01:09.463Z,6.93
2023-01-21T06:03:38.215Z,8.23
2023-01-21T06:06:07.005Z,6.33
2023-01-21T06:08:35.209Z,5.10
2023-01-21T06:11:04.731Z,5.37
2023-01-21T06:13:32.914Z,5.37
2023-01-21T06:16:01.894Z,3.97
2023-01-21T06:18:30.566Z,4.33
2023-01-21T06:21:00.378Z,4.53
2023-01-21T06:23:28.639Z,3.83
2023-01-21T06:26:01.077Z,4.53
2023-01-21T06:28:31.255Z,4.13
2023-01-21T06:30:59.470Z,4.80
2023-01-21T06:33:27.636Z,3.50
2023-01-21T06:35:55.735Z,3.30
2023-01-21T06:38:24.105Z,3.80
2023-01-21T06:40:52.268Z,3.03
2023-01-21T06:43:20.425Z,3.17
2023-01-21T06:45:49.938Z,2.50
2023-01-21T06:48:18.059Z,2.93
2023-01-21T06:50:46.278Z,2.93
2023-01-21T06:53:14.569Z,3.07
2023-01-21T06:55:42.816Z,3.60
2023-01-21T06:58:10.911Z,2.50
2023-01-21T07:00:39.025Z,3.13
2023-01-21T07:03:09.247Z,3.00
2023-01-21T07:05:37.435Z,3.10
2023-01-21T07:08:05.854Z,3.17
2023-01-21T07:10:34.001Z,3.00
2023-01-21T07:13:02.417Z,2.73
2023-01-21T07:15:31.066Z,2.40
2023-01-21T07:17:59.414Z,2.40
2023-01-21T07:20:28.945Z,2.20
2023-01-21T07:22:57.098Z,3.00
2023-01-21T07:25:25.326Z,3.83
2023-01-21T07:27:53.385Z,2.60
2023-01-21T07:30:22.032Z,2.63
2023-01-21T07:32:50.491Z,2.83
2023-01-21T07:35:18.984Z,2.37
2023-01-21T07:37:48.683Z,2.73
2023-01-21T07:40:17.170Z,3.67
2023-01-21T07:42:45.382Z,3.00
2023-01-21T07:45:13.568Z,3.80
2023-01-21T07:47:41.672Z,2.87
2023-01-21T07:50:10.956Z,2.83
2023-01-21T07:52:39.276Z,2.37
2023-01-21T07:55:12.370Z,2.00
2023-01-21T07:57:40.790Z,2.20
2023-01-21T08:00:10.085Z,2.67
2023-01-21T08:02:41.383Z,2.37
2023-01-21T08:05:10.860Z,4.63
2023-01-21T08:07:38.988Z,2.10
2023-01-21T08:10:09.148Z,3.00
2023-01-21T08:12:37.292Z,2.83
2023-01-21T08:15:06.284Z,2.13
2023-01-21T08:17:34.427Z,3.57
2023-01-21T08:20:02.532Z,2.17
2023-01-21T08:22:30.668Z,4.83
2023-01-21T08:24:58.852Z,4.70
2023-01-21T08:27:28.320Z,2.63
2023-01-21T08:29:56.446Z,2.63
2023-01-21T08:32:24.592Z,2.20
2023-01-21T08:34:52.912Z,2.07
2023-01-21T08:37:21.015Z,2.80
2023-01-21T08:39:49.179Z,1.77
2023-01-21T08:42:17.324Z,2.13
2023-01-21T08:44:48.265Z,2.07
2023-01-21T08:47:16.338Z,4.13
2023-01-21T08:49:44.459Z,2.47
2023-01-21T08:52:13.019Z,3.27
2023-01-21T08:54:41.524Z,1.70
2023-01-21T08:57:09.713Z,2.00
2023-01-21T08:59:37.817Z,1.90
2023-01-21T09:02:08.692Z,4.30
2023-01-21T09:04:36.813Z,1.60
2023-01-21T09:07:04.942Z,6.17
2023-01-21T09:09:33.048Z,1.67
2023-01-21T09:12:01.194Z,3.73
2023-01-21T09:14:30.733Z,3.40
2023-01-21T09:16:58.892Z,3.23
2023-01-21T09:19:28.487Z,2.30
2023-01-21T09:21:56.696Z,2.70
2023-01-21T09:24:25.221Z,1.93
2023-01-21T09:26:53.583Z,1.80
2023-01-21T09:29:21.689Z,1.87
2023-01-21T09:31:49.805Z,2.33
2023-01-21T09:34:18.025Z,1.97
2023-01-21T09:36:47.541Z,1.70
2023-01-21T09:39:15.718Z,2.10
2023-01-21T09:41:46.208Z,1.83
2023-01-21T09:44:20.441Z,2.10
2023-01-21T09:46:55.032Z,4.30
2023-01-21T09:49:28.832Z,2.07
2023-01-21T09:52:07.517Z,1.67
2023-01-21T09:54:37.703Z,2.83
2023-01-21T09:57:34.428Z,1.77
2023-01-21T10:00:19.464Z,2.00
2023-01-21T10:02:55.792Z,1.70
2023-01-21T10:06:09.780Z,2.13
2023-01-21T10:08:51.352Z,1.77
2023-01-21T10:11:33.546Z,1.30
2023-01-21T10:14:17.762Z,2.23
2023-01-21T10:16:54.077Z,2.20
2023-01-21T10:19:28.402Z,2.10
2023-01-21T10:22:01.865Z,1.60
2023-01-21T10:24:37.082Z,1.83
2023-01-21T10:27:06.443Z,1.73
2023-01-21T10:29:37.189Z,2.20
2023-01-21T10:32:08.588Z,2.20
2023-01-21T10:34:41.490Z,1.87
2023-01-21T10:37:19.011Z,3.87
2023-01-21T10:39:58.616Z,2.10
2023-01-21T10:42:54.103Z,2.50
2023-01-21T10:45:29.446Z,2.07
2023-01-21T10:48:05.170Z,2.03
2023-01-21T10:50:42.802Z,2.07
2023-01-21T10:53:24.221Z,1.73
2023-01-21T10:56:18.911Z,2.80
2023-01-21T10:58:52.499Z,2.30
2023-01-21T11:01:26.547Z,1.60
2023-01-21T11:03:58.411Z,1.97
2023-01-21T11:06:27.431Z,1.20
2023-01-21T11:08:59.615Z,1.70
2023-01-21T11:11:31.658Z,1.70
2023-01-21T11:14:00.289Z,1.40
2023-01-21T11:16:34.916Z,1.47
2023-01-21T11:19:04.054Z,1.57
2023-01-21T11:21:32.160Z,1.53
2023-01-21T11:24:01.506Z,1.40
2023-01-21T11:26:32.850Z,1.60
2023-01-21T11:29:08.980Z,1.40
2023-01-21T11:31:37.988Z,1.57
2023-01-21T11:34:07.759Z,1.57
2023-01-21T11:36:36.001Z,1.30
2023-01-21T11:39:08.310Z,1.43
2023-01-21T11:41:37.873Z,1.60
2023-01-21T11:44:11.699Z,1.47
2023-01-21T11:46:41.064Z,1.50
2023-01-21T11:49:30.375Z,2.00
2023-01-21T11:52:16.759Z,1.40
2023-01-21T11:54:45.901Z,1.70
2023-01-21T11:57:26.001Z,1.63
2023-01-21T11:59:57.760Z,1.43
2023-01-21T12:02:29.603Z,1.53
2023-01-21T12:05:03.077Z,1.90
2023-01-21T12:07:34.252Z,1.73
2023-01-21T12:10:19.793Z,2.17
2023-01-21T12:13:04.303Z,1.87
2023-01-21T12:15:45.440Z,1.57
2023-01-21T12:18:24.008Z,3.47
2023-01-21T12:21:00.095Z,1.60
2023-01-21T12:23:45.862Z,1.50
2023-01-21T12:26:37.441Z,2.30
2023-01-21T12:29:23.439Z,2.20
2023-01-21T12:31:57.882Z,2.53
2023-01-21T12:34:33.451Z,5.43
2023-01-21T12:37:05.942Z,1.50
2023-01-21T12:39:37.516Z,1.43
2023-01-21T12:42:14.495Z,1.50
2023-01-21T12:44:49.941Z,1.67
2023-01-21T12:47:29.132Z,1.30
2023-01-21T12:50:17.968Z,1.60
2023-01-21T12:52:58.556Z,2.00
2023-01-21T12:55:33.936Z,4.07
2023-01-21T12:58:06.258Z,2.27
2023-01-21T13:00:39.234Z,2.23
2023-01-21T13:03:18.739Z,1.63
2023-01-21T13:05:53.693Z,1.60
2023-01-21T13:08:54.065Z,1.50
2023-01-21T13:11:24.884Z,1.57
2023-01-21T13:14:02.700Z,2.93
2023-01-21T13:16:36.066Z,1.57
2023-01-21T13:19:04.481Z,2.67
2023-01-21T13:21:41.641Z,4.77
2023-01-21T13:24:17.825Z,2.97
2023-01-21T13:26:55.312Z,4.83
2023-01-21T13:29:32.420Z,1.97
2023-01-21T13:32:23.327Z,1.50
2023-01-21T13:35:01.081Z,2.07
2023-01-21T13:37:36.321Z,2.30
2023-01-21T13:40:27.064Z,1.70
2023-01-21T13:43:07.054Z,1.50
2023-01-21T13:45:48.178Z,1.80
2023-01-21T13:48:39.160Z,2.33
2023-01-21T13:51:27.669Z,1.80
2023-01-21T13:54:12.852Z,2.00
2023-01-21T13:57:00.270Z,2.27
2023-01-21T13:59:33.247Z,2.20
2023-01-21T14:02:10.332Z,2.33
2023-01-21T14:04:45.295Z,2.97
2023-01-21T14:07:20.495Z,1.93
2023-01-21T14:09:53.562Z,1.90
2023-01-21T14:12:35.516Z,7.03
2023-01-21T14:15:20.546Z,2.30
2023-01-21T14:18:14.880Z,1.87
2023-01-21T14:21:05.378Z,11.23
2023-01-21T14:23:46.311Z,4.23
2023-01-21T14:26:41.055Z,5.27
2023-01-21T14:29:15.599Z,2.60
2023-01-21T14:31:49.078Z,3.33
2023-01-21T14:34:21.375Z,5.40
2023-01-21T14:37:02.665Z,4.03
2023-01-21T14:39:44.535Z,2.30
2023-01-21T14:42:15.981Z,3.43
2023-01-21T14:44:46.307Z,2.40
2023-01-21T14:47:19.786Z,2.10
2023-01-21T14:49:50.771Z,3.53
2023-01-21T14:52:23.166Z,3.80
2023-01-21T14:54:51.507Z,4.57
2023-01-21T14:57:32.821Z,7.17
2023-01-21T15:00:13.977Z,5.43
2023-01-21T15:02:45.479Z,6.37
2023-01-21T15:05:20.417Z,4.63
2023-01-21T15:08:00.268Z,6.63
2023-01-21T15:10:33.468Z,4.37
2023-01-21T15:13:06.679Z,8.67
2023-01-21T15:15:37.159Z,7.17
2023-01-21T15:18:26.143Z,4.17
2023-01-21T15:20:58.137Z,7.80
2023-01-21T15:23:40.758Z,5.00
2023-01-21T15:26:32.510Z,8.03
2023-01-21T15:29:32.526Z,4.90
2023-01-21T15:32:25.692Z,4.70
2023-01-21T15:34:58.024Z,5.43
2023-01-21T15:37:27.751Z,5.33
2023-01-21T15:40:02.468Z,7.40
2023-01-21T15:42:40.904Z,5.10
2023-01-21T15:45:27.651Z,5.37
2023-01-21T15:48:06.463Z,3.40
2023-01-21T15:50:44.494Z,3.00
2023-01-21T15:53:47.879Z,2.00
2023-01-21T15:56:45.087Z,2.03
2023-01-21T15:59:25.671Z,2.30
2023-01-21T16:02:15.183Z,2.03
2023-01-21T16:04:51.743Z,1.90
2023-01-21T16:07:28.640Z,2.23
2023-01-21T16:10:09.009Z,2.33
2023-01-21T16:12:51.915Z,2.30
2023-01-21T16:15:33.942Z,2.43
2023-01-21T16:18:12.336Z,2.23
2023-01-21T16:20:45.515Z,1.90
2023-01-21T16:23:17.159Z,1.83
2023-01-21T16:25:50.143Z,2.07
2023-01-21T16:28:20.797Z,2.40
2023-01-21T16:30:57.558Z,2.57
2023-01-21T16:33:27.301Z,2.10
2023-01-21T16:35:57.920Z,3.73
2023-01-21T16:38:30.651Z,3.07
2023-01-21T16:41:24.462Z,2.97
2023-01-21T16:43:57.945Z,2.17
2023-01-21T16:46:28.650Z,2.17
2023-01-21T16:48:59.264Z,2.37
2023-01-21T16:51:32.409Z,2.30
2023-01-21T16:54:25.968Z,2.70
2023-01-21T16:56:56.989Z,2.23
2023-01-21T16:59:30.151Z,1.77
2023-01-21T17:02:00.728Z,2.33
2023-01-21T17:04:30.898Z,3.07
2023-01-21T17:07:00.678Z,4.23
2023-01-21T17:09:33.809Z,3.90
2023-01-21T17:12:06.726Z,2.63
2023-01-21T17:14:38.588Z,2.57
2023-01-21T17:17:10.138Z,3.23
2023-01-21T17:19:41.424Z,4.17
2023-01-21T17:22:16.135Z,3.20
2023-01-21T17:25:00.223Z,3.03
2023-01-21T17:27:30.179Z,4.30
2023-01-21T17:30:27.994Z,2.73
2023-01-21T17:32:58.460Z,3.57
2023-01-21T17:35:28.814Z,4.77
2023-01-21T17:37:59.163Z,4.23
2023-01-21T17:40:34.242Z,3.83
2023-01-21T17:43:16.826Z,3.47
2023-01-21T17:45:50.154Z,2.90
2023-01-21T17:48:28.299Z,2.93
2023-01-21T17:51:05.327Z,1.97
2023-01-21T17:53:38.238Z,1.83
2023-01-21T17:56:08.776Z,2.10
2023-01-21T17:58:50.440Z,2.00
2023-01-21T18:01:27.760Z,2.00
2023-01-21T18:03:57.270Z,2.00
2023-01-21T18:06:27.884Z,1.97
2023-01-21T18:08:58.254Z,2.13
2023-01-21T18:11:28.012Z,2.50
2023-01-21T18:13:56.993Z,2.20
2023-01-21T18:16:26.672Z,3.33
2023-01-21T18:18:55.390Z,1.77
2023-01-21T18:21:23.566Z,1.53
2023-01-21T18:23:52.547Z,1.87
2023-01-21T18:26:35.348Z,1.90
2023-01-21T18:29:05.563Z,1.80
2023-01-21T18:31:40.794Z,2.10
2023-01-21T18:34:12.873Z,1.93
2023-01-21T18:36:42.241Z,1.60
2023-01-21T18:39:15.654Z,1.73
2023-01-21T18:41:45.280Z,2.17
2023-01-21T18:44:16.323Z,2.30
2023-01-21T18:46:49.693Z,1.90
2023-01-21T18:49:20.905Z,1.70
2023-01-21T18:51:50.396Z,1.73
2023-01-21T18:54:21.308Z,1.73
2023-01-21T18:56:50.270Z,4.03
2023-01-21T18:59:22.638Z,1.73
2023-01-21T19:01:53.736Z,2.67
2023-01-21T19:04:23.022Z,1.70
2023-01-21T19:06:55.847Z,1.57
2023-01-21T19:09:25.946Z,2.60
2023-01-21T19:11:56.410Z,1.57
2023-01-21T19:14:25.560Z,1.50
2023-01-21T19:16:55.757Z,1.67
2023-01-21T19:19:27.523Z,1.70
2023-01-21T19:21:56.541Z,1.80
2023-01-21T19:24:26.734Z,1.63
2023-01-21T19:26:56.094Z,1.90
2023-01-21T19:29:27.252Z,1.70
2023-01-21T19:31:57.824Z,2.30
2023-01-21T19:34:27.207Z,1.47
2023-01-21T19:36:56.140Z,1.70
2023-01-21T19:39:25.845Z,1.80
2023-01-21T19:42:07.392Z,1.33
2023-01-21T19:44:37.351Z,2.37
2023-01-21T19:47:16.205Z,1.87
2023-01-21T19:49:45.427Z,1.47
2023-01-21T19:52:18.010Z,1.70
2023-01-21T19:54:47.422Z,1.57
2023-01-21T19:57:17.551Z,2.03
2023-01-21T19:59:47.404Z,2.43
2023-01-21T20:02:18.367Z,3.60
2023-01-21T20:04:48.131Z,2.43
2023-01-21T20:07:18.961Z,2.07
2023-01-21T20:09:48.271Z,2.10
2023-01-21T20:12:18.085Z,7.27
2023-01-21T20:14:47.704Z,5.17
2023-01-21T20:17:18.854Z,7.10
2023-01-21T20:19:48.411Z,7.03
2023-01-21T20:22:20.341Z,10.87
2023-01-21T20:24:51.319Z,12.00
2023-01-21T20:27:21.146Z,7.13
2023-01-21T20:30:02.644Z,7.57
2023-01-21T20:32:40.983Z,9.83
2023-01-21T20:35:10.616Z,10.27
2023-01-21T20:37:41.205Z,9.40
2023-01-21T20:40:20.540Z,5.83
2023-01-21T20:42:50.096Z,11.53
2023-01-21T20:45:34.769Z,8.83
2023-01-21T20:48:06.226Z,13.50
2023-01-21T20:50:36.099Z,9.73
2023-01-21T20:53:09.862Z,8.40
2023-01-21T20:55:42.025Z,9.47
2023-01-21T20:58:15.224Z,9.57
2023-01-21T21:00:45.929Z,9.27
2023-01-21T21:03:16.721Z,8.90
2023-01-21T21:05:46.789Z,13.87
2023-01-21T21:08:18.588Z,9.80
2023-01-21T21:10:47.978Z,8.33
2023-01-21T21:13:17.139Z,9.00
2023-01-21T21:15:46.821Z,9.67
2023-01-21T21:18:17.295Z,8.03
2023-01-21T21:20:46.305Z,6.40
2023-01-21T21:23:16.188Z,8.97
2023-01-21T21:25:47.716Z,10.67
2023-01-21T21:28:18.551Z,9.07
2023-01-21T21:30:47.701Z,10.10
2023-01-21T21:33:21.083Z,12.87
2023-01-21T21:35:50.046Z,12.20
2023-01-21T21:38:23.362Z,13.40
2023-01-21T21:40:53.223Z,11.70
2023-01-21T21:43:36.452Z,11.47
2023-01-21T21:46:26.077Z,11.13
2023-01-21T21:48:56.243Z,11.90
2023-01-21T21:51:25.149Z,10.53
2023-01-21T21:53:54.020Z,8.17
2023-01-21T21:56:25.044Z,9.50
2023-01-21T21:58:54.255Z,6.43
2023-01-21T22:01:24.475Z,4.73
2023-01-21T22:03:53.491Z,2.00
2023-01-21T22:06:24.206Z,1.87
2023-01-21T22:08:54.909Z,1.43
2023-01-21T22:11:24.548Z,1.67
2023-01-21T22:13:54.731Z,1.50
2023-01-21T22:16:25.267Z,2.53
2023-01-21T22:18:54.330Z,4.60
2023-01-21T22:21:25.687Z,1.43
2023-01-21T22:23:54.629Z,1.60
2023-01-21T22:26:24.511Z,1.60
2023-01-21T22:28:53.437Z,1.87
2023-01-21T22:31:23.653Z,1.63
2023-01-21T22:33:52.534Z,1.47
2023-01-21T22:36:22.827Z,1.50
2023-01-21T22:38:52.892Z,1.60
2023-01-21T22:41:22.889Z,2.10
2023-01-21T22:43:51.756Z,1.43
2023-01-21T22:46:21.897Z,1.80
2023-01-21T22:48:50.087Z,1.60
2023-01-21T22:51:21.437Z,1.80
2023-01-21T22:53:49.907Z,2.23
2023-01-21T22:56:25.333Z,1.40
2023-01-21T22:58:59.802Z,1.70
2023-01-21T23:01:31.244Z,1.70
2023-01-21T23:04:01.298Z,1.80
2023-01-21T23:06:29.525Z,1.60
2023-01-21T23:08:57.752Z,1.60
2023-01-21T23:11:27.511Z,1.80
2023-01-21T23:13:56.036Z,1.70
2023-01-21T23:16:24.351Z,1.87
2023-01-21T23:18:53.029Z,1.83
2023-01-21T23:21:23.255Z,1.80
2023-01-21T23:23:51.559Z,1.57
2023-01-21T23:26:20.507Z,1.70
2023-01-21T23:28:50.185Z,1.53
2023-01-21T23:31:19.285Z,1.40
2023-01-21T23:33:50.581Z,1.60
2023-01-21T23:36:19.278Z,1.70
2023-01-21T23:38:47.362Z,1.63
2023-01-21T23:41:19.814Z,1.60
2023-01-21T23:43:49.408Z,1.57
2023-01-21T23:46:19.724Z,1.73
2023-01-21T23:48:48.235Z,1.80
2023-01-21T23:51:17.372Z,2.17
2023-01-21T23:53:45.973Z,2.40
2023-01-21T23:56:17.866Z,2.10
2023-01-21T23:58:47.187Z,1.60
